sensor_id;sensor_type;location;lat;lon;timestamp;pressure;altitude;pressure_sealevel;temperature
73734;BMP280;62039;50.000;9.064;2022-09-03T00:02:00;100000.28;;;17.04
73734;BMP280;62039;50.000;9.064;2022-09-03T00:04:42;99998.88;;;17.02
73734;BMP280;62039;50.000;9.064;2022-09-03T00:07:16;99986.09;;;16.99
73734;BMP280;62039;50.000;9.064;2022-09-03T00:09:50;100001.34;;;16.97
73734;BMP280;62039;50.000;9.064;2022-09-03T00:12:21;99994.84;;;16.93
73734;BMP280;62039;50.000;9.064;2022-09-03T00:14:50;100007.47;;;16.91
73734;BMP280;62039;50.000;9.064;2022-09-03T00:17:21;100002.34;;;16.89
73734;BMP280;62039;50.000;9.064;2022-09-03T00:19:53;100006.22;;;16.86
73734;BMP280;62039;50.000;9.064;2022-09-03T00:22:23;99999.53;;;16.84
73734;BMP280;62039;50.000;9.064;2022-09-03T00:24:53;100006.84;;;16.82
73734;BMP280;62039;50.000;9.064;2022-09-03T00:27:24;100001.16;;;16.78
73734;BMP280;62039;50.000;9.064;2022-09-03T00:29:54;100008.50;;;16.76
73734;BMP280;62039;50.000;9.064;2022-09-03T00:32:26;99996.31;;;16.75
73734;BMP280;62039;50.000;9.064;2022-09-03T00:34:57;99998.16;;;16.75
73734;BMP280;62039;50.000;9.064;2022-09-03T00:37:26;100000.78;;;16.75
73734;BMP280;62039;50.000;9.064;2022-09-03T00:39:55;99991.44;;;16.72
73734;BMP280;62039;50.000;9.064;2022-09-03T00:42:32;99999.59;;;16.71
73734;BMP280;62039;50.000;9.064;2022-09-03T00:45:11;100001.63;;;16.69
73734;BMP280;62039;50.000;9.064;2022-09-03T00:47:48;100005.28;;;16.68
73734;BMP280;62039;50.000;9.064;2022-09-03T00:50:27;100001.19;;;16.65
73734;BMP280;62039;50.000;9.064;2022-09-03T00:52:59;100009.34;;;16.64
73734;BMP280;62039;50.000;9.064;2022-09-03T00:55:38;100004.88;;;16.64
73734;BMP280;62039;50.000;9.064;2022-09-03T00:58:33;99994.53;;;16.63
73734;BMP280;62039;50.000;9.064;2022-09-03T01:01:10;99987.44;;;16.63
73734;BMP280;62039;50.000;9.064;2022-09-03T01:03:44;99992.72;;;16.63
73734;BMP280;62039;50.000;9.064;2022-09-03T01:06:17;100001.63;;;16.62
73734;BMP280;62039;50.000;9.064;2022-09-03T01:09:11;99993.94;;;16.61
73734;BMP280;62039;50.000;9.064;2022-09-03T01:11:50;99994.75;;;16.61
73734;BMP280;62039;50.000;9.064;2022-09-03T01:14:32;99992.09;;;16.61
73734;BMP280;62039;50.000;9.064;2022-09-03T01:17:09;99988.44;;;16.62
73734;BMP280;62039;50.000;9.064;2022-09-03T01:20:03;99985.19;;;16.60
73734;BMP280;62039;50.000;9.064;2022-09-03T01:22:55;99991.50;;;16.59
73734;BMP280;62039;50.000;9.064;2022-09-03T01:25:37;99996.75;;;16.59
73734;BMP280;62039;50.000;9.064;2022-09-03T01:28:17;99994.13;;;16.59
73734;BMP280;62039;50.000;9.064;2022-09-03T01:30:50;99992.09;;;16.61
73734;BMP280;62039;50.000;9.064;2022-09-03T01:33:23;99990.28;;;16.62
73734;BMP280;62039;50.000;9.064;2022-09-03T01:35:59;99990.28;;;16.62
73734;BMP280;62039;50.000;9.064;2022-09-03T01:38:33;99991.50;;;16.59
73734;BMP280;62039;50.000;9.064;2022-09-03T01:41:10;99984.63;;;16.58
73734;BMP280;62039;50.000;9.064;2022-09-03T01:43:47;99983.00;;;16.57
73734;BMP280;62039;50.000;9.064;2022-09-03T01:46:22;99985.03;;;16.55
73734;BMP280;62039;50.000;9.064;2022-09-03T01:48:52;99986.84;;;16.55
73734;BMP280;62039;50.000;9.064;2022-09-03T01:51:27;99984.41;;;16.53
73734;BMP280;62039;50.000;9.064;2022-09-03T01:54:11;99981.78;;;16.53
73734;BMP280;62039;50.000;9.064;2022-09-03T01:57:01;99980.97;;;16.53
73734;BMP280;62039;50.000;9.064;2022-09-03T01:59:40;99978.56;;;16.51
73734;BMP280;62039;50.000;9.064;2022-09-03T02:02:09;99973.28;;;16.51
73734;BMP280;62039;50.000;9.064;2022-09-03T02:04:38;99982.22;;;16.50
73734;BMP280;62039;50.000;9.064;2022-09-03T02:07:05;99972.69;;;16.49
73734;BMP280;62039;50.000;9.064;2022-09-03T02:09:32;99978.97;;;16.48
73734;BMP280;62039;50.000;9.064;2022-09-03T02:12:03;99973.69;;;16.48
73734;BMP280;62039;50.000;9.064;2022-09-03T02:14:32;99975.13;;;16.44
73734;BMP280;62039;50.000;9.064;2022-09-03T02:17:01;99974.50;;;16.42
73734;BMP280;62039;50.000;9.064;2022-09-03T02:19:29;99980.81;;;16.41
73734;BMP280;62039;50.000;9.064;2022-09-03T02:21:56;99977.16;;;16.42
73734;BMP280;62039;50.000;9.064;2022-09-03T02:24:24;99968.22;;;16.43
73734;BMP280;62039;50.000;9.064;2022-09-03T02:26:51;99981.63;;;16.41
73734;BMP280;62039;50.000;9.064;2022-09-03T02:29:19;99982.81;;;16.39
73734;BMP280;62039;50.000;9.064;2022-09-03T02:31:46;99982.25;;;16.37
73734;BMP280;62039;50.000;9.064;2022-09-03T02:34:14;99984.06;;;16.36
73734;BMP280;62039;50.000;9.064;2022-09-03T02:36:43;99984.25;;;16.35
73734;BMP280;62039;50.000;9.064;2022-09-03T02:39:11;99974.94;;;16.32
73734;BMP280;62039;50.000;9.064;2022-09-03T02:41:38;99988.09;;;16.32
73734;BMP280;62039;50.000;9.064;2022-09-03T02:44:09;99983.06;;;16.31
73734;BMP280;62039;50.000;9.064;2022-09-03T02:46:39;99985.09;;;16.29
73734;BMP280;62039;50.000;9.064;2022-09-03T02:49:07;99990.75;;;16.26
73734;BMP280;62039;50.000;9.064;2022-09-03T02:51:37;99984.66;;;16.25
73734;BMP280;62039;50.000;9.064;2022-09-03T02:54:04;99982.28;;;16.24
73734;BMP280;62039;50.000;9.064;2022-09-03T02:56:31;99968.47;;;16.22
73734;BMP280;62039;50.000;9.064;2022-09-03T02:58:58;99979.81;;;16.22
73734;BMP280;62039;50.000;9.064;2022-09-03T03:01:25;99983.47;;;16.21
73734;BMP280;62039;50.000;9.064;2022-09-03T03:03:52;99973.94;;;16.20
73734;BMP280;62039;50.000;9.064;2022-09-03T03:06:19;99983.84;;;16.18
73734;BMP280;62039;50.000;9.064;2022-09-03T03:08:47;99983.84;;;16.18
73734;BMP280;62039;50.000;9.064;2022-09-03T03:11:15;99975.94;;;16.18
73734;BMP280;62039;50.000;9.064;2022-09-03T03:13:43;99972.53;;;16.18
73734;BMP280;62039;50.000;9.064;2022-09-03T03:16:11;99972.53;;;16.18
73734;BMP280;62039;50.000;9.064;2022-09-03T03:18:38;99972.53;;;16.18
73734;BMP280;62039;50.000;9.064;2022-09-03T03:21:06;99970.91;;;16.17
73734;BMP280;62039;50.000;9.064;2022-09-03T03:23:33;99973.53;;;16.17
73734;BMP280;62039;50.000;9.064;2022-09-03T03:26:02;99982.44;;;16.16
73734;BMP280;62039;50.000;9.064;2022-09-03T03:28:28;99977.38;;;16.14
73734;BMP280;62039;50.000;9.064;2022-09-03T03:30:55;99981.81;;;16.14
73734;BMP280;62039;50.000;9.064;2022-09-03T03:33:22;99974.94;;;16.13
73734;BMP280;62039;50.000;9.064;2022-09-03T03:35:48;99973.94;;;16.14
73734;BMP280;62039;50.000;9.064;2022-09-03T03:38:15;99981.81;;;16.14
73734;BMP280;62039;50.000;9.064;2022-09-03T03:40:42;99982.66;;;16.14
73734;BMP280;62039;50.000;9.064;2022-09-03T03:43:09;99979.00;;;16.15
73734;BMP280;62039;50.000;9.064;2022-09-03T03:45:36;99980.63;;;16.16
73734;BMP280;62039;50.000;9.064;2022-09-03T03:48:03;99976.97;;;16.17
73734;BMP280;62039;50.000;9.064;2022-09-03T03:50:29;99983.84;;;16.18
73734;BMP280;62039;50.000;9.064;2022-09-03T03:52:58;99985.69;;;16.18
73734;BMP280;62039;50.000;9.064;2022-09-03T03:55:25;99987.28;;;16.19
73734;BMP280;62039;50.000;9.064;2022-09-03T03:57:52;99981.03;;;16.20
73734;BMP280;62039;50.000;9.064;2022-09-03T04:00:20;99977.41;;;16.21
73734;BMP280;62039;50.000;9.064;2022-09-03T04:02:50;99987.94;;;16.21
73734;BMP280;62039;50.000;9.064;2022-09-03T04:05:16;99983.28;;;16.23
73734;BMP280;62039;50.000;9.064;2022-09-03T04:07:48;99983.47;;;16.21
73734;BMP280;62039;50.000;9.064;2022-09-03T04:10:15;99985.91;;;16.23
73734;BMP280;62039;50.000;9.064;2022-09-03T04:12:41;99983.28;;;16.23
73734;BMP280;62039;50.000;9.064;2022-09-03T04:15:08;99989.56;;;16.22
73734;BMP280;62039;50.000;9.064;2022-09-03T04:17:37;99984.28;;;16.22
73734;BMP280;62039;50.000;9.064;2022-09-03T04:20:04;99972.13;;;16.21
73734;BMP280;62039;50.000;9.064;2022-09-03T04:22:30;99967.88;;;16.20
73734;BMP280;62039;50.000;9.064;2022-09-03T04:24:57;99970.50;;;16.20
73734;BMP280;62039;50.000;9.064;2022-09-03T04:27:24;99971.31;;;16.20
73734;BMP280;62039;50.000;9.064;2022-09-03T04:29:50;99978.41;;;16.20
73734;BMP280;62039;50.000;9.064;2022-09-03T04:32:17;99974.13;;;16.19
73734;BMP280;62039;50.000;9.064;2022-09-03T04:34:45;99975.16;;;16.18
73734;BMP280;62039;50.000;9.064;2022-09-03T04:37:11;99987.72;;;16.16
73734;BMP280;62039;50.000;9.064;2022-09-03T04:39:38;99984.47;;;16.14
73734;BMP280;62039;50.000;9.064;2022-09-03T04:42:04;99981.81;;;16.14
73734;BMP280;62039;50.000;9.064;2022-09-03T04:44:31;99978.59;;;16.12
73734;BMP280;62039;50.000;9.064;2022-09-03T04:46:58;99982.25;;;16.11
73734;BMP280;62039;50.000;9.064;2022-09-03T04:49:24;99981.84;;;16.07
73734;BMP280;62039;50.000;9.064;2022-09-03T04:51:52;99998.44;;;16.07
73734;BMP280;62039;50.000;9.064;2022-09-03T04:54:18;99995.22;;;16.05
73734;BMP280;62039;50.000;9.064;2022-09-03T04:56:45;99996.22;;;16.04
73734;BMP280;62039;50.000;9.064;2022-09-03T04:59:12;99998.84;;;16.04
73734;BMP280;62039;50.000;9.064;2022-09-03T05:01:39;100002.53;;;16.03
73734;BMP280;62039;50.000;9.064;2022-09-03T05:04:06;100003.34;;;16.04
73734;BMP280;62039;50.000;9.064;2022-09-03T05:06:34;100003.53;;;16.02
73734;BMP280;62039;50.000;9.064;2022-09-03T05:09:03;100000.28;;;16.00
73734;BMP280;62039;50.000;9.064;2022-09-03T05:11:30;100004.34;;;15.96
73734;BMP280;62039;50.000;9.064;2022-09-03T05:13:58;100000.09;;;15.95
73734;BMP280;62039;50.000;9.064;2022-09-03T05:16:25;99992.59;;;15.92
73734;BMP280;62039;50.000;9.064;2022-09-03T05:18:53;99997.25;;;15.90
73734;BMP280;62039;50.000;9.064;2022-09-03T05:21:20;100000.09;;;15.89
73734;BMP280;62039;50.000;9.064;2022-09-03T05:23:49;100002.72;;;15.89
73734;BMP280;62039;50.000;9.064;2022-09-03T05:26:20;100005.34;;;15.89
73734;BMP280;62039;50.000;9.064;2022-09-03T05:28:47;100006.38;;;15.88
73734;BMP280;62039;50.000;9.064;2022-09-03T05:31:15;100004.75;;;15.87
73734;BMP280;62039;50.000;9.064;2022-09-03T05:33:44;100008.56;;;15.84
73734;BMP280;62039;50.000;9.064;2022-09-03T05:36:13;100010.63;;;15.82
73734;BMP280;62039;50.000;9.064;2022-09-03T05:38:40;100007.38;;;15.80
73734;BMP280;62039;50.000;9.064;2022-09-03T05:41:09;100011.81;;;15.80
73734;BMP280;62039;50.000;9.064;2022-09-03T05:43:38;100013.44;;;15.81
73734;BMP280;62039;50.000;9.064;2022-09-03T05:46:06;100009.00;;;15.81
73734;BMP280;62039;50.000;9.064;2022-09-03T05:48:34;100017.72;;;15.82
73734;BMP280;62039;50.000;9.064;2022-09-03T05:51:02;100022.78;;;15.83
73734;BMP280;62039;50.000;9.064;2022-09-03T05:53:31;100021.16;;;15.82
73734;BMP280;62039;50.000;9.064;2022-09-03T05:55:59;100021.16;;;15.82
73734;BMP280;62039;50.000;9.064;2022-09-03T05:58:29;100020.34;;;15.82
73734;BMP280;62039;50.000;9.064;2022-09-03T06:00:57;100020.16;;;15.83
73734;BMP280;62039;50.000;9.064;2022-09-03T06:03:24;100018.31;;;15.84
73734;BMP280;62039;50.000;9.064;2022-09-03T06:05:52;100024.38;;;15.84
73734;BMP280;62039;50.000;9.064;2022-09-03T06:08:19;100020.97;;;15.84
73734;BMP280;62039;50.000;9.064;2022-09-03T06:10:46;100025.00;;;15.86
73734;BMP280;62039;50.000;9.064;2022-09-03T06:13:12;100032.91;;;15.86
73734;BMP280;62039;50.000;9.064;2022-09-03T06:15:39;100036.16;;;15.88
73734;BMP280;62039;50.000;9.064;2022-09-03T06:18:07;100032.50;;;15.89
73734;BMP280;62039;50.000;9.064;2022-09-03T06:20:33;100034.13;;;15.90
73734;BMP280;62039;50.000;9.064;2022-09-03T06:23:02;100032.91;;;15.93
73734;BMP280;62039;50.000;9.064;2022-09-03T06:25:29;100037.78;;;15.96
73734;BMP280;62039;50.000;9.064;2022-09-03T06:27:56;100028.06;;;15.96
73734;BMP280;62039;50.000;9.064;2022-09-03T06:30:22;100030.47;;;15.98
73734;BMP280;62039;50.000;9.064;2022-09-03T06:32:49;100038.16;;;15.99
73734;BMP280;62039;50.000;9.064;2022-09-03T06:35:17;100031.09;;;16.00
73734;BMP280;62039;50.000;9.064;2022-09-03T06:37:43;100030.88;;;16.01
73734;BMP280;62039;50.000;9.064;2022-09-03T06:40:10;100033.31;;;16.03
73734;BMP280;62039;50.000;9.064;2022-09-03T06:42:37;100036.53;;;16.05
73734;BMP280;62039;50.000;9.064;2022-09-03T06:45:05;100029.47;;;16.05
73734;BMP280;62039;50.000;9.064;2022-09-03T06:47:37;100034.31;;;16.08
73734;BMP280;62039;50.000;9.064;2022-09-03T06:50:04;100038.16;;;16.13
73734;BMP280;62039;50.000;9.064;2022-09-03T06:52:33;100040.22;;;16.17
73734;BMP280;62039;50.000;9.064;2022-09-03T06:54:59;100039.19;;;16.18
73734;BMP280;62039;50.000;9.064;2022-09-03T06:57:26;100046.72;;;16.21
73734;BMP280;62039;50.000;9.064;2022-09-03T06:59:52;100043.06;;;16.22
73734;BMP280;62039;50.000;9.064;2022-09-03T07:02:19;100038.63;;;16.23
73734;BMP280;62039;50.000;9.064;2022-09-03T07:04:45;100044.91;;;16.22
73734;BMP280;62039;50.000;9.064;2022-09-03T07:07:13;100050.97;;;16.22
73734;BMP280;62039;50.000;9.064;2022-09-03T07:09:41;100055.00;;;16.25
73734;BMP280;62039;50.000;9.064;2022-09-03T07:12:13;100055.63;;;16.27
73734;BMP280;62039;50.000;9.064;2022-09-03T07:14:40;100063.97;;;16.30
73734;BMP280;62039;50.000;9.064;2022-09-03T07:17:08;100063.72;;;16.32
73734;BMP280;62039;50.000;9.064;2022-09-03T07:19:34;100065.34;;;16.33
73734;BMP280;62039;50.000;9.064;2022-09-03T07:22:01;100062.31;;;16.36
73734;BMP280;62039;50.000;9.064;2022-09-03T07:24:27;100061.09;;;16.38
73734;BMP280;62039;50.000;9.064;2022-09-03T07:26:55;100063.31;;;16.41
73734;BMP280;62039;50.000;9.064;2022-09-03T07:29:22;100059.69;;;16.42
73734;BMP280;62039;50.000;9.064;2022-09-03T07:31:50;100069.00;;;16.45
73734;BMP280;62039;50.000;9.064;2022-09-03T07:34:18;100069.78;;;16.45
73734;BMP280;62039;50.000;9.064;2022-09-03T07:36:46;100073.84;;;16.48
73734;BMP280;62039;50.000;9.064;2022-09-03T07:39:14;100071.22;;;16.48
73734;BMP280;62039;50.000;9.064;2022-09-03T07:41:42;100072.84;;;16.49
73734;BMP280;62039;50.000;9.064;2022-09-03T07:44:11;100087.66;;;16.50
73734;BMP280;62039;50.000;9.064;2022-09-03T07:46:37;100082.38;;;16.50
73734;BMP280;62039;50.000;9.064;2022-09-03T07:49:04;100082.38;;;16.50
73734;BMP280;62039;50.000;9.064;2022-09-03T07:51:33;100070.81;;;16.51
73734;BMP280;62039;50.000;9.064;2022-09-03T07:54:02;100071.63;;;16.52
73734;BMP280;62039;50.000;9.064;2022-09-03T07:56:29;100072.22;;;16.54
73734;BMP280;62039;50.000;9.064;2022-09-03T07:58:56;100071.41;;;16.53
73734;BMP280;62039;50.000;9.064;2022-09-03T08:01:26;100066.75;;;16.55
73734;BMP280;62039;50.000;9.064;2022-09-03T08:03:53;100074.66;;;16.55
73734;BMP280;62039;50.000;9.064;2022-09-03T08:06:21;100069.78;;;16.59
73734;BMP280;62039;50.000;9.064;2022-09-03T08:08:53;100072.81;;;16.62
73734;BMP280;62039;50.000;9.064;2022-09-03T08:11:20;100074.66;;;16.68
73734;BMP280;62039;50.000;9.064;2022-09-03T08:13:48;100084.16;;;16.76
73734;BMP280;62039;50.000;9.064;2022-09-03T08:16:19;100084.16;;;16.82
73734;BMP280;62039;50.000;9.064;2022-09-03T08:18:47;100081.88;;;16.86
73734;BMP280;62039;50.000;9.064;2022-09-03T08:21:16;100086.59;;;16.91
73734;BMP280;62039;50.000;9.064;2022-09-03T08:23:44;100089.41;;;16.96
73734;BMP280;62039;50.000;9.064;2022-09-03T08:26:12;100091.22;;;17.02
73734;BMP280;62039;50.000;9.064;2022-09-03T08:28:40;100085.31;;;17.06
73734;BMP280;62039;50.000;9.064;2022-09-03T08:31:07;100086.34;;;17.12
73734;BMP280;62039;50.000;9.064;2022-09-03T08:33:34;100081.22;;;17.17
73734;BMP280;62039;50.000;9.064;2022-09-03T08:36:03;100077.13;;;17.21
73734;BMP280;62039;50.000;9.064;2022-09-03T08:38:31;100075.72;;;17.25
73734;BMP280;62039;50.000;9.064;2022-09-03T08:41:05;100071.63;;;17.29
73734;BMP280;62039;50.000;9.064;2022-09-03T08:43:34;100073.88;;;17.32
73734;BMP280;62039;50.000;9.064;2022-09-03T08:46:02;100072.81;;;17.33
73734;BMP280;62039;50.000;9.064;2022-09-03T08:48:30;100065.50;;;17.35
73734;BMP280;62039;50.000;9.064;2022-09-03T08:50:58;100060.22;;;17.35
73734;BMP280;62039;50.000;9.064;2022-09-03T08:53:31;100056.56;;;17.36
73734;BMP280;62039;50.000;9.064;2022-09-03T08:56:03;100046.81;;;17.37
73734;BMP280;62039;50.000;9.064;2022-09-03T08:58:34;100052.09;;;17.37
73734;BMP280;62039;50.000;9.064;2022-09-03T09:01:06;100054.75;;;17.37
73734;BMP280;62039;50.000;9.064;2022-09-03T09:03:52;100068.75;;;17.37
73734;BMP280;62039;50.000;9.064;2022-09-03T09:06:25;100057.34;;;17.43
73734;BMP280;62039;50.000;9.064;2022-09-03T09:09:02;100060.16;;;17.48
73734;BMP280;62039;50.000;9.064;2022-09-03T09:11:40;100061.38;;;17.52
73734;BMP280;62039;50.000;9.064;2022-09-03T09:14:16;100058.09;;;17.57
73734;BMP280;62039;50.000;9.064;2022-09-03T09:16:48;100050.56;;;17.60
73734;BMP280;62039;50.000;9.064;2022-09-03T09:19:34;100046.50;;;17.64
73734;BMP280;62039;50.000;9.064;2022-09-03T09:22:08;100057.59;;;17.73
73734;BMP280;62039;50.000;9.064;2022-09-03T09:24:40;100051.03;;;17.82
73734;BMP280;62039;50.000;9.064;2022-09-03T09:27:07;100060.53;;;17.90
73734;BMP280;62039;50.000;9.064;2022-09-03T09:29:40;100061.28;;;17.97
73734;BMP280;62039;50.000;9.064;2022-09-03T09:32:08;100069.53;;;18.07
73734;BMP280;62039;50.000;9.064;2022-09-03T09:34:36;100067.44;;;18.16
73734;BMP280;62039;50.000;9.064;2022-09-03T09:37:05;100060.09;;;18.24
73734;BMP280;62039;50.000;9.064;2022-09-03T09:39:33;100065.31;;;18.31
73734;BMP280;62039;50.000;9.064;2022-09-03T09:42:04;100066.88;;;18.38
73734;BMP280;62039;50.000;9.064;2022-09-03T09:44:31;100067.03;;;18.43
73734;BMP280;62039;50.000;9.064;2022-09-03T09:47:02;100073.06;;;18.51
73734;BMP280;62039;50.000;9.064;2022-09-03T09:49:32;100070.56;;;18.56
73734;BMP280;62039;50.000;9.064;2022-09-03T09:52:00;100065.22;;;18.62
73734;BMP280;62039;50.000;9.064;2022-09-03T09:54:27;100079.38;;;18.68
73734;BMP280;62039;50.000;9.064;2022-09-03T09:56:58;100080.13;;;18.75
73734;BMP280;62039;50.000;9.064;2022-09-03T09:59:26;100078.44;;;18.80
73734;BMP280;62039;50.000;9.064;2022-09-03T10:02:06;100081.47;;;18.84
73734;BMP280;62039;50.000;9.064;2022-09-03T10:04:33;100082.88;;;18.87
73734;BMP280;62039;50.000;9.064;2022-09-03T10:07:04;100095.69;;;18.90
73734;BMP280;62039;50.000;9.064;2022-09-03T10:09:41;100096.28;;;18.92
73734;BMP280;62039;50.000;9.064;2022-09-03T10:12:13;100092.97;;;18.96
73734;BMP280;62039;50.000;9.064;2022-09-03T10:14:46;100103.69;;;19.01
73734;BMP280;62039;50.000;9.064;2022-09-03T10:17:15;100112.81;;;19.05
73734;BMP280;62039;50.000;9.064;2022-09-03T10:19:51;100115.00;;;19.08
73734;BMP280;62039;50.000;9.064;2022-09-03T10:22:21;100104.81;;;19.12
73734;BMP280;62039;50.000;9.064;2022-09-03T10:24:53;100106.78;;;19.16
73734;BMP280;62039;50.000;9.064;2022-09-03T10:27:23;100109.22;;;19.18
73734;BMP280;62039;50.000;9.064;2022-09-03T10:29:51;100106.09;;;19.21
73734;BMP280;62039;50.000;9.064;2022-09-03T10:32:25;100109.13;;;19.25
73734;BMP280;62039;50.000;9.064;2022-09-03T10:35:23;100095.88;;;19.25
73734;BMP280;62039;50.000;9.064;2022-09-03T10:38:02;100104.44;;;19.27
73734;BMP280;62039;50.000;9.064;2022-09-03T10:40:35;100091.75;;;19.29
73734;BMP280;62039;50.000;9.064;2022-09-03T10:43:21;100080.94;;;19.30
73734;BMP280;62039;50.000;9.064;2022-09-03T10:45:59;100077.63;;;19.35
73734;BMP280;62039;50.000;9.064;2022-09-03T10:48:47;100076.75;;;19.41
73734;BMP280;62039;50.000;9.064;2022-09-03T10:51:18;100079.53;;;19.46
73734;BMP280;62039;50.000;9.064;2022-09-03T10:54:01;100076.00;;;19.52
73734;BMP280;62039;50.000;9.064;2022-09-03T10:56:36;100081.44;;;19.57
73734;BMP280;62039;50.000;9.064;2022-09-03T10:59:29;100084.22;;;19.62
73734;BMP280;62039;50.000;9.064;2022-09-03T11:02:09;100088.59;;;19.68
73734;BMP280;62039;50.000;9.064;2022-09-03T11:04:45;100092.22;;;19.74
73734;BMP280;62039;50.000;9.064;2022-09-03T11:07:12;100089.47;;;19.80
73734;BMP280;62039;50.000;9.064;2022-09-03T11:09:41;100088.56;;;19.86
73734;BMP280;62039;50.000;9.064;2022-09-03T11:12:13;100091.91;;;19.93
73734;BMP280;62039;50.000;9.064;2022-09-03T11:14:44;100083.63;;;20.02
73734;BMP280;62039;50.000;9.064;2022-09-03T11:17:17;100077.97;;;20.10
73734;BMP280;62039;50.000;9.064;2022-09-03T11:19:47;100074.00;;;20.19
73734;BMP280;62039;50.000;9.064;2022-09-03T11:22:16;100072.03;;;20.26
73734;BMP280;62039;50.000;9.064;2022-09-03T11:24:53;100079.41;;;20.35
73734;BMP280;62039;50.000;9.064;2022-09-03T11:27:32;100066.06;;;20.42
73734;BMP280;62039;50.000;9.064;2022-09-03T11:30:04;100075.75;;;20.48
73734;BMP280;62039;50.000;9.064;2022-09-03T11:32:40;100067.19;;;20.58
73734;BMP280;62039;50.000;9.064;2022-09-03T11:35:15;100072.47;;;20.69
73734;BMP280;62039;50.000;9.064;2022-09-03T11:37:50;100068.00;;;20.82
73734;BMP280;62039;50.000;9.064;2022-09-03T11:40:18;100064.06;;;20.96
73734;BMP280;62039;50.000;9.064;2022-09-03T11:42:45;100063.88;;;21.14
73734;BMP280;62039;50.000;9.064;2022-09-03T11:45:19;100054.09;;;21.31
73734;BMP280;62039;50.000;9.064;2022-09-03T11:47:48;100046.53;;;21.51
73734;BMP280;62039;50.000;9.064;2022-09-03T11:50:18;100049.53;;;21.72
73734;BMP280;62039;50.000;9.064;2022-09-03T11:52:46;100029.09;;;21.89
73734;BMP280;62039;50.000;9.064;2022-09-03T11:55:28;100028.13;;;22.12
73734;BMP280;62039;50.000;9.064;2022-09-03T11:58:11;100023.69;;;22.34
73734;BMP280;62039;50.000;9.064;2022-09-03T12:00:42;100028.53;;;22.59
73734;BMP280;62039;50.000;9.064;2022-09-03T12:03:13;100025.16;;;22.85
73734;BMP280;62039;50.000;9.064;2022-09-03T12:05:48;100018.59;;;23.15
73734;BMP280;62039;50.000;9.064;2022-09-03T12:08:44;100026.34;;;23.43
73734;BMP280;62039;50.000;9.064;2022-09-03T12:11:37;100011.44;;;23.74
73734;BMP280;62039;50.000;9.064;2022-09-03T12:14:12;100019.91;;;24.03
73734;BMP280;62039;50.000;9.064;2022-09-03T12:16:59;100009.97;;;24.30
73734;BMP280;62039;50.000;9.064;2022-09-03T12:19:35;100011.19;;;24.59
73734;BMP280;62039;50.000;9.064;2022-09-03T12:22:03;100010.50;;;24.84
73734;BMP280;62039;50.000;9.064;2022-09-03T12:24:30;100011.88;;;25.07
73734;BMP280;62039;50.000;9.064;2022-09-03T12:27:02;100009.31;;;25.32
73734;BMP280;62039;50.000;9.064;2022-09-03T12:29:30;100001.00;;;25.54
73734;BMP280;62039;50.000;9.064;2022-09-03T12:32:05;100000.53;;;25.72
73734;BMP280;62039;50.000;9.064;2022-09-03T12:34:34;100002.38;;;25.87
73734;BMP280;62039;50.000;9.064;2022-09-03T12:37:00;99992.72;;;26.01
73734;BMP280;62039;50.000;9.064;2022-09-03T12:39:28;99989.50;;;26.14
73734;BMP280;62039;50.000;9.064;2022-09-03T12:42:18;99990.81;;;26.27
73734;BMP280;62039;50.000;9.064;2022-09-03T12:44:46;99981.91;;;26.42
73734;BMP280;62039;50.000;9.064;2022-09-03T12:47:14;99979.19;;;26.57
73734;BMP280;62039;50.000;9.064;2022-09-03T12:50:07;99978.59;;;26.75
73734;BMP280;62039;50.000;9.064;2022-09-03T12:52:36;99978.22;;;26.92
73734;BMP280;62039;50.000;9.064;2022-09-03T12:55:07;99976.53;;;27.06
73734;BMP280;62039;50.000;9.064;2022-09-03T12:57:41;99974.31;;;27.18
73734;BMP280;62039;50.000;9.064;2022-09-03T13:00:13;99979.31;;;27.30
73734;BMP280;62039;50.000;9.064;2022-09-03T13:02:47;99979.00;;;27.42
73734;BMP280;62039;50.000;9.064;2022-09-03T13:05:19;99980.78;;;27.51
73734;BMP280;62039;50.000;9.064;2022-09-03T13:07:48;99974.81;;;27.59
73734;BMP280;62039;50.000;9.064;2022-09-03T13:10:23;99966.72;;;27.69
73734;BMP280;62039;50.000;9.064;2022-09-03T13:12:51;99960.50;;;27.74
73734;BMP280;62039;50.000;9.064;2022-09-03T13:15:21;99959.56;;;27.84
73734;BMP280;62039;50.000;9.064;2022-09-03T13:18:00;99962.72;;;27.91
73734;BMP280;62039;50.000;9.064;2022-09-03T13:20:34;99966.78;;;27.88
73734;BMP280;62039;50.000;9.064;2022-09-03T13:23:17;99968.16;;;27.86
73734;BMP280;62039;50.000;9.064;2022-09-03T13:25:55;99967.69;;;27.79
73734;BMP280;62039;50.000;9.064;2022-09-03T13:28:42;99970.97;;;27.70
73734;BMP280;62039;50.000;9.064;2022-09-03T13:31:23;99970.00;;;27.56
73734;BMP280;62039;50.000;9.064;2022-09-03T13:33:56;99970.63;;;27.43
73734;BMP280;62039;50.000;9.064;2022-09-03T13:36:29;99975.28;;;27.32
73734;BMP280;62039;50.000;9.064;2022-09-03T13:38:59;99973.47;;;27.23
73734;BMP280;62039;50.000;9.064;2022-09-03T13:41:34;99979.44;;;27.15
73734;BMP280;62039;50.000;9.064;2022-09-03T13:44:05;99975.19;;;27.09
73734;BMP280;62039;50.000;9.064;2022-09-03T13:46:40;99971.72;;;27.03
73734;BMP280;62039;50.000;9.064;2022-09-03T13:49:25;99970.44;;;26.95
73734;BMP280;62039;50.000;9.064;2022-09-03T13:51:57;99972.38;;;26.85
73734;BMP280;62039;50.000;9.064;2022-09-03T13:54:26;99973.25;;;26.75
73734;BMP280;62039;50.000;9.064;2022-09-03T13:57:23;99981.81;;;26.67
73734;BMP280;62039;50.000;9.064;2022-09-03T13:59:55;99973.81;;;26.57
73734;BMP280;62039;50.000;9.064;2022-09-03T14:02:30;99978.69;;;26.50
73734;BMP280;62039;50.000;9.064;2022-09-03T14:05:04;99987.03;;;26.38
73734;BMP280;62039;50.000;9.064;2022-09-03T14:07:45;99982.50;;;26.29
73734;BMP280;62039;50.000;9.064;2022-09-03T14:10:21;99976.63;;;26.22
73734;BMP280;62039;50.000;9.064;2022-09-03T14:12:52;99975.00;;;26.15
73734;BMP280;62039;50.000;9.064;2022-09-03T14:15:29;99967.56;;;26.07
73734;BMP280;62039;50.000;9.064;2022-09-03T14:18:02;99970.22;;;26.02
73734;BMP280;62039;50.000;9.064;2022-09-03T14:20:40;99968.94;;;26.00
73734;BMP280;62039;50.000;9.064;2022-09-03T14:23:26;99957.94;;;25.96
73734;BMP280;62039;50.000;9.064;2022-09-03T14:25:56;99956.06;;;25.97